createdAt,value
2019-01-18T00:00:10.287Z,88.62
2019-01-18T00:01:10.272Z,88.76
2019-01-18T00:02:10.270Z,88.20
2019-01-18T00:03:10.273Z,88.52
2019-01-18T00:04:10.243Z,88.04
2019-01-18T00:05:10.228Z,88.76
2019-01-18T00:06:10.224Z,88.31
2019-01-18T00:07:10.205Z,88.20
2019-01-18T00:08:10.216Z,87.89
2019-01-18T00:09:10.179Z,88.42
2019-01-18T00:10:10.169Z,88.83
2019-01-18T00:11:10.161Z,89.31
2019-01-18T00:12:10.153Z,89.45
2019-01-18T00:13:10.162Z,89.35
2019-01-18T00:14:10.134Z,89.81
2019-01-18T00:15:10.114Z,89.50
2019-01-18T00:16:10.107Z,89.66
2019-01-18T00:17:10.091Z,90.39
2019-01-18T00:18:10.102Z,91.43
2019-01-18T00:19:10.071Z,90.44
2019-01-18T00:20:10.062Z,91.02
2019-01-18T00:21:10.064Z,90.75
2019-01-18T00:22:10.040Z,91.37
2019-01-18T00:23:10.032Z,91.58
2019-01-18T00:24:10.043Z,91.78
2019-01-18T00:25:10.011Z,92.27
2019-01-18T00:26:09.992Z,92.16
2019-01-18T00:27:09.983Z,91.37
2019-01-18T00:28:09.969Z,91.68
2019-01-18T00:29:09.976Z,91.58
2019-01-18T00:30:09.948Z,91.68
2019-01-18T00:31:09.935Z,91.78
2019-01-18T00:32:09.925Z,92.10
2019-01-18T00:33:09.912Z,92.10
2019-01-18T00:34:09.921Z,91.68
2019-01-18T00:35:09.906Z,91.89
2019-01-18T00:36:09.879Z,92.83
2019-01-18T00:37:09.872Z,92.46
2019-01-18T00:38:09.856Z,93.29
2019-01-18T00:39:09.886Z,93.18
2019-01-18T00:40:09.843Z,93.18
2019-01-18T00:41:09.834Z,93.50
2019-01-18T00:42:09.823Z,94.33
2019-01-18T00:43:09.801Z,94.64
2019-01-18T00:44:09.808Z,94.79
2019-01-18T00:45:09.785Z,94.48
2019-01-18T00:46:09.767Z,93.33
2019-01-18T00:47:09.755Z,94.17
2019-01-18T00:48:09.746Z,93.75
2019-01-18T00:49:09.766Z,94.79
2019-01-18T00:50:09.736Z,95.56
2019-01-18T00:51:09.718Z,94.58
2019-01-18T00:52:09.724Z,95.46
2019-01-18T00:53:09.694Z,95.46
2019-01-18T00:54:09.691Z,95.10
2019-01-18T00:55:09.700Z,95.25
2019-01-18T00:56:09.653Z,94.52
2019-01-18T00:57:09.650Z,94.48
2019-01-18T00:58:09.655Z,95.36
2019-01-18T00:59:09.635Z,95.21
2019-01-18T01:00:09.642Z,95.46
2019-01-18T01:01:09.611Z,95.04
2019-01-18T01:02:09.620Z,95.67
2019-01-18T01:03:09.583Z,94.90
2019-01-18T01:04:09.567Z,94.79
2019-01-18T01:05:09.555Z,95.00
2019-01-18T01:06:09.559Z,94.69
2019-01-18T01:07:09.543Z,93.65
2019-01-18T01:08:09.530Z,93.79
2019-01-18T01:09:09.525Z,93.12
2019-01-18T01:10:09.504Z,92.08
2019-01-18T01:11:09.512Z,92.29
2019-01-18T01:12:09.521Z,91.87
2019-01-18T01:13:09.479Z,91.77
2019-01-18T01:14:09.468Z,91.56
2019-01-18T01:15:09.463Z,91.77
2019-01-18T01:16:09.464Z,92.50
2019-01-18T01:17:09.428Z,92.81
2019-01-18T01:18:09.431Z,91.77
2019-01-18T01:19:09.403Z,90.93
2019-01-18T01:20:09.413Z,91.04
2019-01-18T01:21:09.405Z,90.62
2019-01-18T01:22:09.366Z,91.72
2019-01-18T01:23:09.374Z,91.56
2019-01-18T01:24:09.354Z,91.66
2019-01-18T01:25:09.339Z,92.08
2019-01-18T01:26:09.334Z,91.56
2019-01-18T01:27:09.373Z,92.18
2019-01-18T01:28:09.299Z,91.77
2019-01-18T01:29:09.288Z,91.77
2019-01-18T01:30:09.275Z,91.87
2019-01-18T01:31:09.278Z,92.18
2019-01-18T01:32:09.281Z,92.50
2019-01-18T01:33:09.271Z,92.81
2019-01-18T01:34:09.235Z,93.23
2019-01-18T01:35:09.222Z,93.33
2019-01-18T01:36:09.213Z,93.33
2019-01-18T01:37:09.208Z,93.33
2019-01-18T01:38:09.283Z,93.48
2019-01-18T01:39:09.185Z,94.31
2019-01-18T01:40:09.166Z,93.48
2019-01-18T01:41:09.154Z,93.79
2019-01-18T01:42:09.145Z,92.44
2019-01-18T01:43:09.153Z,92.79
2019-01-18T01:44:09.122Z,92.47
2019-01-18T01:45:09.123Z,92.52
2019-01-18T01:46:09.103Z,92.83
2019-01-18T01:47:09.090Z,92.94
2019-01-18T01:48:09.092Z,92.77
2019-01-18T01:49:09.083Z,94.02
2019-01-18T01:50:09.054Z,94.96
2019-01-18T01:51:09.056Z,94.76
2019-01-18T01:52:09.033Z,94.44
2019-01-18T01:53:09.039Z,93.44
2019-01-18T01:54:09.024Z,93.40
2019-01-18T01:55:09.004Z,92.25
2019-01-18T01:56:08.991Z,92.04
2019-01-18T01:57:08.978Z,92.14
2019-01-18T01:58:09.004Z,92.50
2019-01-18T01:59:08.959Z,92.29
2019-01-18T02:00:08.952Z,92.08
2019-01-18T02:01:08.935Z,92.29
2019-01-18T02:02:08.925Z,91.98
2019-01-18T02:03:08.920Z,91.98
2019-01-18T02:04:08.939Z,93.02
2019-01-18T02:05:08.896Z,92.82
2019-01-18T02:06:08.892Z,92.19
2019-01-18T02:07:08.865Z,90.72
2019-01-18T02:08:08.874Z,89.78
2019-01-18T02:09:09.156Z,90.31
2019-01-18T02:10:08.831Z,90.41
2019-01-18T02:11:08.821Z,89.89
2019-01-18T02:12:08.809Z,89.72
2019-01-18T02:13:08.800Z,89.47
2019-01-18T02:14:08.852Z,89.15
2019-01-18T02:15:08.780Z,88.64
2019-01-18T02:16:08.768Z,90.03
2019-01-18T02:17:08.762Z,89.99
2019-01-18T02:18:08.746Z,89.20
2019-01-18T02:19:08.783Z,88.74
2019-01-18T02:20:08.725Z,88.78
2019-01-18T02:21:08.728Z,88.21
2019-01-18T02:22:08.706Z,87.00
2019-01-18T02:23:08.697Z,86.37
2019-01-18T02:24:08.679Z,87.00
2019-01-18T02:25:08.682Z,87.21
2019-01-18T02:26:08.657Z,88.15
2019-01-18T02:27:08.640Z,87.94
2019-01-18T02:28:08.636Z,88.15
2019-01-18T02:29:08.648Z,86.37
2019-01-18T02:30:08.635Z,86.27
2019-01-18T02:31:08.602Z,86.20
2019-01-18T02:32:08.600Z,86.41
2019-01-18T02:33:08.579Z,86.41
2019-01-18T02:34:08.566Z,86.62
2019-01-18T02:35:08.578Z,87.35
2019-01-18T02:36:08.543Z,88.29
2019-01-18T02:37:08.528Z,88.40
2019-01-18T02:38:08.524Z,88.19
2019-01-18T02:39:08.543Z,88.29
2019-01-18T02:40:08.500Z,87.98
2019-01-18T02:41:08.530Z,88.92
2019-01-18T02:42:08.475Z,88.92
2019-01-18T02:43:08.465Z,89.23
2019-01-18T02:44:08.461Z,88.92
2019-01-18T02:45:08.449Z,89.65
2019-01-18T02:46:08.453Z,90.39
2019-01-18T02:47:08.417Z,90.70
2019-01-18T02:48:08.416Z,90.49
2019-01-18T02:49:08.406Z,90.81
2019-01-18T02:50:08.394Z,90.70
2019-01-18T02:51:08.402Z,89.65
2019-01-18T02:52:08.370Z,88.40
2019-01-18T02:53:08.354Z,87.04
2019-01-18T02:54:08.361Z,88.19
2019-01-18T02:55:08.339Z,88.82
2019-01-18T02:56:08.359Z,87.35
2019-01-18T02:57:08.309Z,86.55
2019-01-18T02:58:08.303Z,88.02
2019-01-18T02:59:08.290Z,88.92
2019-01-18T03:00:08.284Z,88.86
2019-01-18T03:01:08.289Z,89.17
2019-01-18T03:02:08.277Z,87.29
2019-01-18T03:03:08.249Z,85.93
2019-01-18T03:04:08.243Z,85.82
2019-01-18T03:05:08.223Z,85.72
2019-01-18T03:06:08.211Z,85.93
2019-01-18T03:07:08.236Z,85.61
2019-01-18T03:08:08.195Z,86.35
2019-01-18T03:09:08.190Z,86.60
2019-01-18T03:10:08.162Z,86.45
2019-01-18T03:11:08.175Z,86.35
2019-01-18T03:12:08.176Z,87.29
2019-01-18T03:13:08.137Z,87.39
2019-01-18T03:14:08.141Z,88.17
2019-01-18T03:15:08.108Z,88.59
2019-01-18T03:16:08.103Z,88.48
2019-01-18T03:17:08.118Z,89.32
2019-01-18T03:18:08.093Z,88.79
2019-01-18T03:19:08.070Z,89.84
2019-01-18T03:20:08.060Z,90.16
2019-01-18T03:21:08.044Z,90.05
2019-01-18T03:22:08.035Z,90.05
2019-01-18T03:23:08.053Z,89.95
2019-01-18T03:24:08.009Z,90.58
2019-01-18T03:25:08.055Z,90.36
2019-01-18T03:26:08.000Z,89.73
2019-01-18T03:27:07.983Z,90.05
2019-01-18T03:28:07.964Z,89.22
2019-01-18T03:29:07.955Z,87.85
2019-01-18T03:30:18.140Z,88.27
2019-01-18T03:31:08.954Z,87.64
2019-01-18T03:32:07.950Z,88.48
2019-01-18T03:33:07.929Z,88.69
2019-01-18T03:34:07.918Z,89.63
2019-01-18T03:35:07.937Z,90.26
2019-01-18T03:36:07.884Z,89.84
2019-01-18T03:37:07.870Z,89.73
2019-01-18T03:38:07.854Z,89.95
2019-01-18T03:39:07.884Z,89.22
2019-01-18T03:40:07.843Z,89.22
2019-01-18T03:41:07.823Z,90.22
2019-01-18T03:42:07.810Z,89.73
2019-01-18T03:43:07.802Z,90.26
2019-01-18T03:44:07.787Z,89.48
2019-01-18T03:45:07.798Z,90.01
2019-01-18T03:46:07.766Z,89.38
2019-01-18T03:47:07.758Z,89.95
2019-01-18T03:48:07.752Z,90.26
2019-01-18T03:49:07.733Z,88.86
2019-01-18T03:50:07.790Z,88.34
2019-01-18T03:51:07.714Z,88.90
2019-01-18T03:52:07.705Z,88.37
2019-01-18T03:53:07.692Z,89.32
2019-01-18T03:54:07.696Z,90.22
2019-01-18T03:55:07.694Z,90.11
2019-01-18T03:56:07.657Z,89.07
2019-01-18T03:57:07.646Z,88.02
2019-01-18T03:58:07.639Z,88.12
2019-01-18T03:59:07.634Z,88.54
2019-01-18T04:00:07.638Z,88.23
2019-01-18T04:01:07.620Z,88.54
2019-01-18T04:02:07.605Z,88.12
2019-01-18T04:03:07.589Z,87.98
2019-01-18T04:04:07.585Z,87.56
2019-01-18T04:05:07.582Z,87.25
2019-01-18T04:06:07.567Z,86.98
2019-01-18T04:07:07.536Z,86.45
2019-01-18T04:08:07.524Z,88.19
2019-01-18T04:09:07.518Z,87.98
2019-01-18T04:10:07.514Z,87.15
2019-01-18T04:11:07.509Z,87.15
2019-01-18T04:12:07.487Z,86.72
2019-01-18T04:13:07.472Z,87.04
2019-01-18T04:14:07.461Z,87.04
2019-01-18T04:15:07.447Z,86.52
2019-01-18T04:16:07.465Z,86.41
2019-01-18T04:17:07.434Z,88.29
2019-01-18T04:18:07.411Z,88.29
2019-01-18T04:19:07.427Z,87.04
2019-01-18T04:20:07.397Z,86.41
2019-01-18T04:21:07.390Z,86.72
2019-01-18T04:22:07.400Z,87.25
2019-01-18T04:23:07.361Z,86.69
2019-01-18T04:24:07.357Z,86.31
2019-01-18T04:25:07.355Z,86.10
2019-01-18T04:26:07.365Z,86.06
2019-01-18T04:27:07.698Z,86.72
2019-01-18T04:28:07.308Z,86.41
2019-01-18T04:29:07.306Z,86.52
2019-01-18T04:30:07.284Z,86.47
2019-01-18T04:31:07.270Z,85.53
2019-01-18T04:32:07.284Z,85.43
2019-01-18T04:33:07.247Z,85.64
2019-01-18T04:34:07.235Z,85.85
2019-01-18T04:35:07.227Z,85.96
2019-01-18T04:36:07.210Z,85.85
2019-01-18T04:37:07.228Z,85.33
2019-01-18T04:38:07.200Z,85.43
2019-01-18T04:39:07.189Z,85.33
2019-01-18T04:40:07.174Z,85.43
2019-01-18T04:41:07.158Z,85.74
2019-01-18T04:42:07.189Z,85.99
2019-01-18T04:43:07.144Z,86.16
2019-01-18T04:44:07.143Z,86.37
2019-01-18T04:45:07.117Z,86.41
2019-01-18T04:46:07.112Z,86.37
2019-01-18T04:47:07.132Z,86.37
2019-01-18T04:48:07.080Z,85.96
2019-01-18T04:49:07.076Z,85.22
2019-01-18T04:50:07.076Z,82.92
2019-01-18T04:51:07.058Z,81.67
2019-01-18T04:52:07.052Z,81.98
2019-01-18T04:53:07.047Z,83.13
2019-01-18T04:54:07.016Z,83.34
2019-01-18T04:55:07.006Z,82.71
2019-01-18T04:56:06.994Z,83.23
2019-01-18T04:57:06.999Z,81.15
2019-01-18T04:58:06.987Z,80.62
2019-01-18T04:59:06.957Z,79.58
2019-01-18T05:00:06.954Z,78.77
2019-01-18T05:01:06.942Z,77.48
2019-01-18T05:02:06.925Z,78.11
2019-01-18T05:03:06.932Z,77.59
2019-01-18T05:04:06.905Z,77.80
2019-01-18T05:05:06.894Z,78.25
2019-01-18T05:06:06.892Z,76.37
2019-01-18T05:07:06.872Z,75.32
2019-01-18T05:08:06.878Z,76.57
2019-01-18T05:09:06.844Z,77.83
2019-01-18T05:10:06.924Z,77.83
2019-01-18T05:11:06.899Z,78.15
2019-01-18T05:12:06.816Z,78.15
2019-01-18T05:13:06.841Z,78.56
2019-01-18T05:14:06.801Z,78.56
2019-01-18T05:15:06.794Z,77.83
2019-01-18T05:16:06.770Z,77.10
2019-01-18T05:17:06.763Z,76.26
2019-01-18T05:18:06.778Z,76.26
2019-01-18T05:19:06.745Z,76.57
2019-01-18T05:20:06.725Z,76.26
2019-01-18T05:21:06.716Z,76.26
2019-01-18T05:22:06.707Z,76.57
2019-01-18T05:23:06.712Z,77.42
2019-01-18T05:24:06.695Z,76.57
2019-01-18T05:25:06.675Z,76.26
2019-01-18T05:26:06.662Z,76.68
2019-01-18T05:27:06.649Z,77.42
2019-01-18T05:28:06.680Z,75.63
2019-01-18T05:29:06.630Z,75.32
2019-01-18T05:30:06.627Z,76.06
2019-01-18T05:31:06.607Z,76.57
2019-01-18T05:32:06.612Z,75.95
2019-01-18T05:33:06.616Z,75.95
2019-01-18T05:34:06.587Z,76.06
2019-01-18T05:35:06.559Z,76.68
2019-01-18T05:36:06.550Z,76.26
2019-01-18T05:37:06.540Z,75.53
2019-01-18T05:38:06.524Z,76.06
2019-01-18T05:39:06.537Z,75.78
2019-01-18T05:40:06.508Z,75.53
2019-01-18T05:41:06.502Z,74.07
2019-01-18T05:42:06.482Z,74.49
2019-01-18T05:43:06.482Z,75.01
2019-01-18T05:44:06.559Z,74.49
2019-01-18T05:45:06.523Z,74.80
2019-01-18T05:46:06.449Z,73.86
2019-01-18T05:47:06.434Z,74.17
2019-01-18T05:48:06.418Z,73.54
2019-01-18T05:49:06.430Z,72.92
2019-01-18T05:50:06.398Z,73.33
2019-01-18T05:51:06.386Z,73.13
2019-01-18T05:52:06.372Z,74.17
2019-01-18T05:53:06.361Z,74.59
2019-01-18T05:54:06.392Z,74.07
2019-01-18T05:55:06.354Z,73.54
2019-01-18T05:56:06.340Z,73.65
2019-01-18T05:57:06.320Z,73.13
2019-01-18T05:58:06.307Z,73.54
2019-01-18T05:59:06.327Z,73.96
2019-01-18T06:00:06.288Z,74.27
2019-01-18T06:01:06.275Z,73.54
2019-01-18T06:02:06.264Z,73.86
2019-01-18T06:03:06.259Z,74.07
2019-01-18T06:04:06.261Z,74.49
2019-01-18T06:05:06.238Z,71.45
2019-01-18T06:06:06.230Z,72.50
2019-01-18T06:07:06.205Z,72.08
2019-01-18T06:08:06.199Z,72.81
2019-01-18T06:09:06.215Z,73.33
2019-01-18T06:10:06.186Z,73.02
2019-01-18T06:11:06.232Z,73.75
2019-01-18T06:12:06.164Z,73.44
2019-01-18T06:13:06.139Z,73.23
2019-01-18T06:14:06.164Z,73.75
2019-01-18T06:15:06.118Z,73.33
2019-01-18T06:16:06.105Z,73.86
2019-01-18T06:17:06.097Z,72.81
2019-01-18T06:18:06.086Z,73.13
2019-01-18T06:19:06.073Z,73.54
2019-01-18T06:20:06.076Z,73.86
2019-01-18T06:21:06.053Z,74.38
2019-01-18T06:22:06.049Z,74.59
2019-01-18T06:23:06.034Z,74.59
2019-01-18T06:24:06.019Z,74.27
2019-01-18T06:25:06.022Z,73.96
2019-01-18T06:26:06.016Z,74.59
2019-01-18T06:27:05.993Z,74.17
2019-01-18T06:28:05.974Z,73.65
2019-01-18T06:29:05.968Z,74.27
2019-01-18T06:30:05.995Z,74.07
2019-01-18T06:31:05.950Z,74.27
2019-01-18T06:32:05.930Z,74.38
2019-01-18T06:33:05.918Z,75.01
2019-01-18T06:34:05.914Z,75.43
2019-01-18T06:35:05.922Z,75.11
2019-01-18T06:36:05.888Z,75.53
2019-01-18T06:37:05.873Z,75.32
2019-01-18T06:38:05.868Z,75.01
2019-01-18T06:39:05.850Z,74.80
2019-01-18T06:40:05.862Z,75.53
2019-01-18T06:41:05.835Z,74.69
2019-01-18T06:42:05.815Z,74.17
2019-01-18T06:43:05.810Z,74.38
2019-01-18T06:44:05.800Z,73.86
2019-01-18T06:45:05.825Z,74.31
2019-01-18T06:46:05.794Z,74.21
2019-01-18T06:47:05.764Z,73.75
2019-01-18T06:48:05.750Z,74.21
2019-01-18T06:49:05.742Z,74.52
2019-01-18T06:50:05.758Z,74.73
2019-01-18T06:51:05.726Z,75.04
2019-01-18T06:52:05.723Z,74.62
2019-01-18T06:53:05.701Z,74.52
2019-01-18T06:54:05.730Z,74.84
2019-01-18T06:55:05.693Z,74.94
2019-01-18T06:56:05.663Z,75.15
2019-01-18T06:57:05.648Z,75.04
2019-01-18T06:58:05.646Z,75.04
2019-01-18T06:59:05.632Z,75.04
2019-01-18T07:00:05.634Z,75.25
2019-01-18T07:01:08.628Z,74.94
2019-01-18T07:02:05.596Z,74.52
2019-01-18T07:03:05.586Z,75.25
2019-01-18T07:04:05.575Z,75.25
2019-01-18T07:05:05.591Z,75.46
2019-01-18T07:06:05.568Z,74.84
2019-01-18T07:07:05.537Z,74.03
2019-01-18T07:08:05.536Z,74.03
2019-01-18T07:09:05.529Z,73.61
2019-01-18T07:10:05.509Z,74.45
2019-01-18T07:11:05.510Z,74.45
2019-01-18T07:12:05.481Z,74.87
2019-01-18T07:13:05.471Z,74.76
2019-01-18T07:14:05.462Z,74.97
2019-01-18T07:15:05.452Z,74.90
2019-01-18T07:16:05.455Z,74.76
2019-01-18T07:17:05.437Z,74.66
2019-01-18T07:18:05.424Z,74.87
2019-01-18T07:19:05.409Z,75.18
2019-01-18T07:20:05.453Z,75.39
2019-01-18T07:21:05.408Z,75.29
2019-01-18T07:22:05.370Z,75.29
2019-01-18T07:23:05.372Z,74.87
2019-01-18T07:24:05.364Z,74.90
2019-01-18T07:25:05.345Z,75.01
2019-01-18T07:26:05.350Z,74.69
2019-01-18T07:27:05.341Z,74.69
2019-01-18T07:28:05.309Z,74.69
2019-01-18T07:29:05.298Z,75.01
2019-01-18T07:30:05.284Z,75.32
2019-01-18T07:31:05.295Z,75.21
2019-01-18T07:32:05.273Z,74.90
2019-01-18T07:33:05.264Z,75.11
2019-01-18T07:34:05.259Z,74.90
2019-01-18T07:35:05.242Z,75.32
2019-01-18T07:36:05.245Z,75.32
2019-01-18T07:37:05.210Z,75.21
2019-01-18T07:38:05.202Z,75.21
2019-01-18T07:39:05.186Z,75.11
2019-01-18T07:40:05.189Z,75.11
2019-01-18T07:41:05.183Z,74.80
2019-01-18T07:42:05.152Z,74.69
2019-01-18T07:43:05.164Z,74.69
2019-01-18T07:44:05.138Z,74.90
2019-01-18T07:45:05.126Z,74.90
2019-01-18T07:46:05.235Z,74.69
2019-01-18T07:47:05.102Z,74.80
2019-01-18T07:48:05.087Z,74.90
2019-01-18T07:49:05.083Z,75.11
2019-01-18T07:50:05.061Z,74.58
2019-01-18T07:51:05.095Z,74.27
2019-01-18T07:52:05.040Z,74.27
2019-01-18T07:53:05.043Z,74.27
2019-01-18T07:54:05.035Z,74.06
2019-01-18T07:55:05.020Z,73.96
2019-01-18T07:56:04.997Z,73.75
2019-01-18T07:57:05.006Z,73.75
2019-01-18T07:58:04.975Z,73.44
2019-01-18T07:59:04.966Z,73.44
2019-01-18T08:00:04.956Z,73.82
2019-01-18T08:01:04.957Z,73.96
2019-01-18T08:02:04.960Z,74.38
2019-01-18T08:03:04.940Z,73.93
2019-01-18T08:04:04.940Z,74.03
2019-01-18T08:05:04.898Z,74.03
2019-01-18T08:06:04.901Z,73.54
2019-01-18T08:07:04.875Z,73.19
2019-01-18T08:08:04.881Z,73.72
2019-01-18T08:09:04.870Z,73.82
2019-01-18T08:10:04.839Z,73.65
2019-01-18T08:11:04.831Z,73.19
2019-01-18T08:12:04.831Z,73.82
2019-01-18T08:13:04.851Z,73.72
2019-01-18T08:14:04.813Z,73.33
2019-01-18T08:15:04.793Z,73.61
2019-01-18T08:16:04.777Z,73.61
2019-01-18T08:17:04.770Z,73.50
2019-01-18T08:18:04.776Z,72.88
2019-01-18T08:19:04.752Z,73.19
2019-01-18T08:20:04.754Z,73.50
2019-01-18T08:21:04.720Z,73.50
2019-01-18T08:22:04.711Z,73.40
2019-01-18T08:23:04.720Z,72.67
2019-01-18T08:24:04.690Z,72.77
2019-01-18T08:25:04.686Z,72.88
2019-01-18T08:26:04.680Z,73.30
2019-01-18T08:27:04.661Z,73.50
2019-01-18T08:28:04.667Z,73.19
2019-01-18T08:29:04.641Z,72.70
2019-01-18T08:30:04.736Z,73.30
2019-01-18T08:31:04.623Z,73.19
2019-01-18T08:32:04.612Z,73.19
2019-01-18T08:33:04.626Z,73.50
2019-01-18T08:34:04.583Z,73.82
2019-01-18T08:35:04.582Z,73.82
2019-01-18T08:36:04.561Z,73.19
2019-01-18T08:37:04.568Z,73.61
2019-01-18T08:38:04.569Z,73.82
2019-01-18T08:39:04.534Z,73.82
2019-01-18T08:40:04.526Z,73.93
2019-01-18T08:41:04.502Z,74.34
2019-01-18T08:42:04.492Z,74.34
2019-01-18T08:43:04.502Z,74.55
2019-01-18T08:44:04.466Z,74.97
2019-01-18T08:45:04.457Z,74.76
2019-01-18T08:46:04.460Z,74.76
2019-01-18T08:47:04.437Z,74.76
2019-01-18T08:48:04.463Z,75.60
2019-01-18T08:49:04.429Z,75.49
2019-01-18T08:50:04.407Z,75.60
2019-01-18T08:51:04.392Z,74.94
2019-01-18T08:52:04.393Z,75.25
2019-01-18T08:53:04.400Z,75.46
2019-01-18T08:54:04.366Z,75.78
2019-01-18T08:55:04.353Z,75.46
2019-01-18T08:56:04.338Z,75.57
2019-01-18T08:57:04.346Z,75.25
2019-01-18T08:58:04.336Z,75.78
2019-01-18T08:59:04.302Z,75.88
2019-01-18T09:00:04.297Z,75.57
2019-01-18T09:01:04.281Z,75.88
2019-01-18T09:02:04.271Z,76.09
2019-01-18T09:03:04.301Z,76.09
2019-01-18T09:04:04.267Z,75.98
2019-01-18T09:05:04.241Z,76.51
2019-01-18T09:06:04.234Z,75.74
2019-01-18T09:07:04.221Z,75.57
2019-01-18T09:08:04.202Z,75.95
2019-01-18T09:09:04.211Z,76.30
2019-01-18T09:10:04.177Z,76.16
2019-01-18T09:11:04.176Z,76.20
2019-01-18T09:12:04.177Z,76.06
2019-01-18T09:13:04.148Z,76.26
2019-01-18T09:14:04.155Z,75.78
2019-01-18T09:15:04.155Z,75.74
2019-01-18T09:16:04.112Z,76.68
2019-01-18T09:17:04.109Z,76.79
2019-01-18T09:18:04.093Z,75.74
2019-01-18T09:19:04.117Z,75.95
2019-01-18T09:20:04.074Z,75.95
2019-01-18T09:21:04.066Z,76.37
2019-01-18T09:22:04.046Z,76.57
2019-01-18T09:23:04.075Z,76.47
2019-01-18T09:24:04.059Z,76.26
2019-01-18T09:25:04.017Z,76.16
2019-01-18T09:26:04.016Z,76.26
2019-01-18T09:27:04.027Z,76.57
2019-01-18T09:28:03.988Z,76.26
2019-01-18T09:29:03.986Z,76.37
2019-01-18T09:30:04.000Z,75.95
2019-01-18T09:31:03.956Z,76.16
2019-01-18T09:32:03.948Z,76.06
2019-01-18T09:33:03.928Z,76.16
2019-01-18T09:34:03.924Z,76.26
2019-01-18T09:35:03.934Z,76.44
2019-01-18T09:36:03.892Z,75.84
2019-01-18T09:37:03.895Z,75.71
2019-01-18T09:38:03.879Z,75.08
2019-01-18T09:39:03.858Z,75.04
2019-01-18T09:40:03.865Z,74.69
2019-01-18T09:41:03.839Z,74.04
2019-01-18T09:42:03.832Z,72.96
2019-01-18T09:43:03.814Z,71.26
2019-01-18T09:44:03.815Z,69.66
2019-01-18T09:45:03.807Z,69.94
2019-01-18T09:46:03.790Z,68.97
2019-01-18T09:47:03.772Z,67.51
2019-01-18T09:48:03.761Z,67.07
2019-01-18T09:49:03.782Z,66.96
2019-01-18T09:50:03.770Z,67.20
2019-01-18T09:51:03.732Z,67.61
2019-01-18T09:52:03.716Z,68.35
2019-01-18T09:53:03.714Z,68.03
2019-01-18T09:54:03.694Z,67.69
2019-01-18T09:55:03.713Z,67.14
2019-01-18T09:56:03.671Z,66.44
2019-01-18T09:57:03.667Z,66.13
2019-01-18T09:58:03.649Z,65.99
2019-01-18T09:59:03.640Z,65.78
2019-01-18T10:00:03.676Z,65.34
2019-01-18T10:01:03.635Z,64.72
2019-01-18T10:02:03.607Z,64.61
2019-01-18T10:03:03.604Z,64.82
2019-01-18T10:04:03.583Z,65.13
2019-01-18T10:05:03.587Z,65.55
2019-01-18T10:06:03.612Z,65.16
2019-01-18T10:07:03.566Z,65.23
2019-01-18T10:08:03.540Z,65.06
2019-01-18T10:09:03.533Z,65.92
2019-01-18T10:10:03.552Z,65.92
2019-01-18T10:11:03.510Z,66.78
2019-01-18T10:12:03.498Z,67.20
2019-01-18T10:13:03.487Z,66.09
2019-01-18T10:14:03.477Z,65.23
2019-01-18T10:15:03.463Z,65.13
2019-01-18T10:16:03.485Z,65.65
2019-01-18T10:17:03.442Z,64.51
2019-01-18T10:18:03.446Z,63.75
2019-01-18T10:19:03.423Z,63.62
2019-01-18T10:20:03.421Z,61.90
2019-01-18T10:21:03.421Z,60.72
2019-01-18T10:22:03.379Z,59.22
2019-01-18T10:23:03.377Z,60.18
2019-01-18T10:24:03.359Z,59.56
2019-01-18T10:25:03.345Z,60.39
2019-01-18T10:26:03.356Z,60.83
2019-01-18T10:27:03.325Z,60.28
2019-01-18T10:28:03.310Z,59.06
2019-01-18T10:29:03.308Z,57.17
2019-01-18T10:30:03.294Z,57.01
2019-01-18T10:31:03.296Z,56.57
2019-01-18T10:32:03.275Z,54.53
2019-01-18T10:33:03.266Z,53.34
2019-01-18T10:34:03.249Z,51.65
2019-01-18T10:35:03.238Z,50.38
2019-01-18T10:36:03.249Z,51.10
2019-01-18T10:37:03.214Z,51.15
2019-01-18T10:38:03.205Z,50.64
2019-01-18T10:39:03.188Z,51.62
2019-01-18T10:40:03.190Z,49.90
2019-01-18T10:41:03.199Z,48.05
2019-01-18T10:42:03.160Z,48.44
2019-01-18T10:43:03.163Z,47.49
2019-01-18T10:44:06.141Z,46.75
2019-01-18T10:45:03.126Z,46.44
2019-01-18T10:46:03.196Z,46.55
2019-01-18T10:47:03.104Z,47.74
2019-01-18T10:48:03.099Z,47.39
2019-01-18T10:49:03.088Z,46.36
2019-01-18T10:50:03.067Z,45.72
2019-01-18T10:51:03.109Z,45.46
2019-01-18T10:52:03.067Z,46.84
2019-01-18T10:53:03.034Z,48.94
2019-01-18T10:54:03.029Z,47.33
2019-01-18T10:55:03.439Z,47.08
2019-01-18T10:56:03.016Z,45.81
2019-01-18T10:57:03.002Z,44.98
2019-01-18T10:58:02.971Z,44.88
2019-01-18T10:59:02.963Z,44.68
2019-01-18T11:00:02.959Z,44.90
2019-01-18T11:01:02.943Z,45.43
2019-01-18T11:02:07.264Z,45.46
2019-01-18T11:03:02.924Z,47.81
2019-01-18T11:04:02.929Z,47.95
2019-01-18T11:05:02.904Z,46.69
2019-01-18T11:06:02.908Z,45.58
2019-01-18T11:07:02.871Z,45.03
2019-01-18T11:08:02.888Z,44.14
2019-01-18T11:09:02.866Z,45.36
2019-01-18T11:10:02.840Z,45.10
2019-01-18T11:11:02.828Z,43.90
2019-01-18T11:12:02.816Z,46.44
2019-01-18T11:13:02.839Z,43.22
2019-01-18T11:14:02.797Z,42.13
2019-01-18T11:15:02.786Z,42.60
2019-01-18T11:16:02.787Z,43.10
2019-01-18T11:17:02.757Z,42.27
2019-01-18T11:18:02.748Z,42.58
2019-01-18T11:19:02.754Z,42.77
2019-01-18T11:20:02.739Z,41.23
2019-01-18T11:21:02.714Z,41.72
2019-01-18T11:22:02.703Z,42.32
2019-01-18T11:23:02.697Z,40.05
2019-01-18T11:24:02.711Z,39.60
2019-01-18T11:25:02.676Z,40.30
2019-01-18T11:26:02.666Z,38.73
2019-01-18T11:27:02.649Z,37.68
2019-01-18T11:28:02.638Z,38.76
2019-01-18T11:29:02.645Z,39.23
2019-01-18T11:30:02.620Z,40.58
2019-01-18T11:31:02.618Z,39.47
2019-01-18T11:32:02.611Z,41.05
2019-01-18T11:33:02.580Z,41.97
2019-01-18T11:34:02.582Z,41.56
2019-01-18T11:35:02.582Z,40.51
2019-01-18T11:36:02.546Z,40.84
2019-01-18T11:37:02.540Z,41.00
2019-01-18T11:38:02.525Z,40.88
2019-01-18T11:39:02.529Z,39.92
2019-01-18T11:40:02.535Z,39.17
2019-01-18T11:41:02.487Z,37.48
2019-01-18T11:42:05.348Z,36.55
2019-01-18T11:43:02.483Z,36.99
2019-01-18T11:44:02.498Z,38.68
2019-01-18T11:45:02.464Z,38.86
2019-01-18T11:46:02.450Z,38.09
2019-01-18T11:47:02.425Z,37.14
2019-01-18T11:48:02.407Z,35.47
2019-01-18T11:49:02.401Z,35.39
2019-01-18T11:50:02.431Z,36.55
2019-01-18T11:51:02.389Z,38.86
2019-01-18T11:52:02.363Z,38.15
2019-01-18T11:53:02.358Z,39.09
2019-01-18T11:54:02.344Z,38.84
2019-01-18T11:55:02.354Z,40.41
2019-01-18T11:56:02.321Z,41.31
2019-01-18T11:57:02.314Z,43.42
2019-01-18T11:58:02.293Z,45.36
2019-01-18T11:59:02.297Z,48.13
2019-01-18T12:00:02.303Z,50.05
2019-01-18T12:01:02.269Z,50.90
2019-01-18T12:02:02.270Z,51.29
2019-01-18T12:03:02.244Z,49.72
2019-01-18T12:04:02.226Z,49.49
2019-01-18T12:05:02.227Z,49.88
2019-01-18T12:06:02.209Z,49.43
2019-01-18T12:07:02.204Z,47.85
2019-01-18T12:08:02.200Z,47.85
2019-01-18T12:09:02.222Z,47.96
2019-01-18T12:10:02.162Z,46.84
2019-01-18T12:11:02.159Z,47.56
2019-01-18T12:12:02.138Z,47.59
2019-01-18T12:13:02.130Z,47.56
2019-01-18T12:14:02.113Z,48.00
2019-01-18T12:15:02.106Z,49.78
2019-01-18T12:16:02.119Z,50.01
2019-01-18T12:17:02.084Z,51.68
2019-01-18T12:18:03.248Z,53.18
2019-01-18T12:19:02.066Z,53.10
2019-01-18T12:20:02.044Z,54.08
2019-01-18T12:21:02.065Z,56.31
2019-01-18T12:22:02.027Z,56.96
2019-01-18T12:23:02.009Z,56.99
2019-01-18T12:24:01.999Z,57.43
2019-01-18T12:25:01.992Z,58.94
2019-01-18T12:26:01.992Z,59.25
2019-01-18T12:27:01.969Z,59.14
2019-01-18T12:28:01.956Z,59.17
2019-01-18T12:29:01.949Z,59.25
2019-01-18T12:30:01.951Z,59.98
2019-01-18T12:31:01.944Z,59.69
2019-01-18T12:32:01.913Z,59.90
2019-01-18T12:33:01.898Z,60.42
2019-01-18T12:34:01.909Z,60.52
2019-01-18T12:35:01.880Z,60.52
2019-01-18T12:36:02.615Z,60.63
2019-01-18T12:37:01.899Z,59.59
2019-01-18T12:38:01.863Z,58.97
2019-01-18T12:39:01.839Z,59.20
2019-01-18T12:40:01.830Z,58.58
2019-01-18T12:41:01.826Z,57.56
2019-01-18T12:42:01.867Z,58.50
2019-01-18T12:43:01.789Z,59.02
2019-01-18T12:44:01.783Z,58.39
2019-01-18T12:45:01.774Z,59.12
2019-01-18T12:46:01.755Z,58.50
2019-01-18T12:47:01.764Z,58.81
2019-01-18T12:48:01.729Z,57.56
2019-01-18T12:49:01.721Z,58.18
2019-01-18T12:50:01.707Z,58.60
2019-01-18T12:51:01.706Z,59.33
2019-01-18T12:52:01.715Z,58.18